createdAt,value
2023-04-02T00:01:02.638Z,80.19
2023-04-02T00:04:03.538Z,80.98
2023-04-02T00:06:32.982Z,81.95
2023-04-02T00:09:33.589Z,82.36
2023-04-02T00:12:17.571Z,82.37
2023-04-02T00:14:53.746Z,82.52
2023-04-02T00:17:24.917Z,82.49
2023-04-02T00:19:59.101Z,82.71
2023-04-02T00:22:33.864Z,81.89
2023-04-02T00:25:10.486Z,81.98
2023-04-02T00:27:38.217Z,81.08
2023-04-02T00:30:06.472Z,80.66
2023-04-02T00:32:36.440Z,80.25
2023-04-02T00:35:05.977Z,79.83
2023-04-02T00:37:39.108Z,79.26
2023-04-02T00:40:16.865Z,78.94
2023-04-02T00:42:46.528Z,78.82
2023-04-02T00:45:21.698Z,78.60
2023-04-02T00:47:49.608Z,78.46
2023-04-02T00:50:26.462Z,78.39
2023-04-02T00:52:55.702Z,78.28
2023-04-02T00:55:28.589Z,78.15
2023-04-02T00:57:57.430Z,78.00
2023-04-02T01:00:36.681Z,78.04
2023-04-02T01:03:19.583Z,78.02
2023-04-02T01:06:11.005Z,78.06
2023-04-02T01:08:57.774Z,78.61
2023-04-02T01:12:05.475Z,78.77
2023-04-02T01:14:47.928Z,79.19
2023-04-02T01:17:30.626Z,79.50
2023-04-02T01:20:09.507Z,79.95
2023-04-02T01:22:49.592Z,79.82
2023-04-02T01:25:28.451Z,80.10
2023-04-02T01:28:08.386Z,80.19
2023-04-02T01:30:37.749Z,80.00
2023-04-02T01:33:10.636Z,79.49
2023-04-02T01:35:42.547Z,79.25
2023-04-02T01:38:25.866Z,78.41
2023-04-02T01:41:14.990Z,78.32
2023-04-02T01:43:57.282Z,78.74
2023-04-02T01:46:33.508Z,78.94
2023-04-02T01:49:12.432Z,79.12
2023-04-02T01:51:43.926Z,79.51
2023-04-02T01:54:12.306Z,79.90
2023-04-02T01:56:42.432Z,80.00
2023-04-02T01:59:12.189Z,80.39
2023-04-02T02:01:49.460Z,80.40
2023-04-02T02:04:20.507Z,80.46
2023-04-02T02:06:49.716Z,80.96
2023-04-02T02:09:24.094Z,81.25
2023-04-02T02:11:52.596Z,81.55
2023-04-02T02:14:23.743Z,81.39
2023-04-02T02:16:53.507Z,81.17
2023-04-02T02:19:33.310Z,81.13
2023-04-02T02:22:35.072Z,81.20
2023-04-02T02:25:18.773Z,81.36
2023-04-02T02:27:49.004Z,81.34
2023-04-02T02:30:28.428Z,81.11
2023-04-02T02:33:18.095Z,81.05
2023-04-02T02:36:15.147Z,81.33
2023-04-02T02:38:58.915Z,81.11
2023-04-02T02:41:44.814Z,81.12
2023-04-02T02:44:18.323Z,81.37
2023-04-02T02:47:19.969Z,81.18
2023-04-02T02:49:52.460Z,80.85
2023-04-02T02:52:24.940Z,80.52
2023-04-02T02:55:06.397Z,80.80
2023-04-02T02:57:39.339Z,81.32
2023-04-02T03:00:13.069Z,81.56
2023-04-02T03:02:43.300Z,81.61
2023-04-02T03:05:17.273Z,82.03
2023-04-02T03:07:45.197Z,82.31
2023-04-02T03:10:18.438Z,82.78
2023-04-02T03:13:01.126Z,82.50
2023-04-02T03:15:36.530Z,82.96
2023-04-02T03:18:12.197Z,83.21
2023-04-02T03:20:49.845Z,83.16
2023-04-02T03:23:36.048Z,82.96
2023-04-02T03:26:13.140Z,83.01
2023-04-02T03:28:47.619Z,82.56
2023-04-02T03:31:29.965Z,82.09
2023-04-02T03:34:09.021Z,81.82
2023-04-02T03:36:46.640Z,81.86
2023-04-02T03:39:39.132Z,81.14
2023-04-02T03:42:14.841Z,81.19
2023-04-02T03:44:48.384Z,80.98
2023-04-02T03:47:25.439Z,80.72
2023-04-02T03:50:09.335Z,80.49
2023-04-02T03:52:38.910Z,80.39
2023-04-02T03:55:34.896Z,80.17
2023-04-02T03:58:18.996Z,79.80
2023-04-02T04:00:49.504Z,79.98
2023-04-02T04:03:31.554Z,79.87
2023-04-02T04:06:11.394Z,80.00
2023-04-02T04:08:47.599Z,80.03
2023-04-02T04:11:18.605Z,79.93
2023-04-02T04:14:25.588Z,79.72
2023-04-02T04:17:24.703Z,79.62
2023-04-02T04:20:08.032Z,79.59
2023-04-02T04:22:35.947Z,79.57
2023-04-02T04:25:07.465Z,79.67
2023-04-02T04:27:52.842Z,79.67
2023-04-02T04:30:34.815Z,79.71
2023-04-02T04:33:10.914Z,79.50
2023-04-02T04:35:45.512Z,79.32
2023-04-02T04:38:21.883Z,79.07
2023-04-02T04:40:54.983Z,78.82
2023-04-02T04:43:34.668Z,78.81
2023-04-02T04:46:11.074Z,78.78
2023-04-02T04:48:53.855Z,78.72
2023-04-02T04:51:30.132Z,78.64
2023-04-02T04:54:01.674Z,78.46
2023-04-02T04:56:33.544Z,78.33
2023-04-02T04:59:30.465Z,78.33
2023-04-02T05:02:12.554Z,78.77
2023-04-02T05:04:50.200Z,78.84
2023-04-02T05:07:29.659Z,78.87
2023-04-02T05:10:05.481Z,78.47
2023-04-02T05:12:55.480Z,78.91
2023-04-02T05:15:44.639Z,78.16
2023-04-02T05:18:18.156Z,77.36
2023-04-02T05:21:01.360Z,76.74
2023-04-02T05:23:38.512Z,75.83
2023-04-02T05:26:22.773Z,75.62
2023-04-02T05:29:03.273Z,75.07
2023-04-02T05:31:49.914Z,74.68
2023-04-02T05:34:28.861Z,74.21
2023-04-02T05:36:57.030Z,73.94
2023-04-02T05:39:28.061Z,73.75
2023-04-02T05:42:08.501Z,73.43
2023-04-02T05:44:41.840Z,73.12
2023-04-02T05:47:16.005Z,73.07
2023-04-02T05:49:50.585Z,72.46
2023-04-02T05:52:23.603Z,72.21
2023-04-02T05:55:01.228Z,71.83
2023-04-02T05:57:46.836Z,71.96
2023-04-02T06:00:26.354Z,72.16
2023-04-02T06:03:07.390Z,71.85
2023-04-02T06:05:40.790Z,71.71
2023-04-02T06:08:37.732Z,71.35
2023-04-02T06:11:21.400Z,70.85
2023-04-02T06:13:49.130Z,70.72
2023-04-02T06:16:17.620Z,70.64
2023-04-02T06:18:46.168Z,70.55
2023-04-02T06:21:18.919Z,70.64
2023-04-02T06:24:07.982Z,70.58
2023-04-02T06:26:44.565Z,70.79
2023-04-02T06:29:44.241Z,70.76
2023-04-02T06:32:14.798Z,70.28
2023-04-02T06:34:43.751Z,69.89
2023-04-02T06:37:32.862Z,69.86
2023-04-02T06:40:04.259Z,69.24
2023-04-02T06:42:38.760Z,68.13
2023-04-02T06:45:07.729Z,67.63
2023-04-02T06:47:35.580Z,66.97
2023-04-02T06:50:13.865Z,66.97
2023-04-02T06:52:48.667Z,67.17
2023-04-02T06:55:28.576Z,66.76
2023-04-02T06:57:56.183Z,66.67
2023-04-02T07:00:31.460Z,66.84
2023-04-02T07:03:02.905Z,66.79
2023-04-02T07:05:33.009Z,67.01
2023-04-02T07:08:01.073Z,66.44
2023-04-02T07:10:28.695Z,66.02
2023-04-02T07:12:56.299Z,65.81
2023-04-02T07:15:25.510Z,65.16
2023-04-02T07:17:54.792Z,64.99
2023-04-02T07:20:25.943Z,64.92
2023-04-02T07:22:54.279Z,64.53
2023-04-02T07:25:24.527Z,64.48
2023-04-02T07:27:53.558Z,63.77
2023-04-02T07:30:23.302Z,63.94
2023-04-02T07:32:51.019Z,63.29
2023-04-02T07:35:18.752Z,62.65
2023-04-02T07:37:46.624Z,61.96
2023-04-02T07:40:22.950Z,62.04
2023-04-02T07:42:51.264Z,61.71
2023-04-02T07:45:21.407Z,61.24
2023-04-02T07:47:49.079Z,60.02
2023-04-02T07:50:16.866Z,59.63
2023-04-02T07:52:45.410Z,60.06
2023-04-02T07:55:15.660Z,59.73
2023-04-02T07:57:51.928Z,59.29
2023-04-02T08:00:22.683Z,58.21
2023-04-02T08:02:50.829Z,56.87
2023-04-02T08:05:20.948Z,56.71
2023-04-02T08:07:56.769Z,57.10
2023-04-02T08:10:25.620Z,56.90
2023-04-02T08:12:55.430Z,57.22
2023-04-02T08:15:23.145Z,57.12
2023-04-02T08:17:53.519Z,56.15
2023-04-02T08:20:23.207Z,55.56
2023-04-02T08:22:51.437Z,55.24
2023-04-02T08:25:19.045Z,54.92
2023-04-02T08:27:49.929Z,53.84
2023-04-02T08:30:19.005Z,52.36
2023-04-02T08:32:47.108Z,51.68
2023-04-02T08:35:17.093Z,52.44
2023-04-02T08:37:45.056Z,51.93
2023-04-02T08:40:43.765Z,51.33
2023-04-02T08:43:23.781Z,50.43
2023-04-02T08:46:00.590Z,51.81
2023-04-02T08:48:33.407Z,52.21
2023-04-02T08:51:07.641Z,52.45
2023-04-02T08:53:39.339Z,52.50
2023-04-02T08:56:28.694Z,51.67
2023-04-02T08:59:02.808Z,52.11
2023-04-02T09:01:42.690Z,51.28
2023-04-02T09:04:19.892Z,51.68
2023-04-02T09:06:49.455Z,52.35
2023-04-02T09:09:19.247Z,51.65
2023-04-02T09:11:54.207Z,50.90
2023-04-02T09:14:56.713Z,50.35
2023-04-02T09:17:26.435Z,51.18
2023-04-02T09:20:05.588Z,51.12
2023-04-02T09:22:35.980Z,50.51
2023-04-02T09:25:06.013Z,50.49
2023-04-02T09:27:36.366Z,50.59
2023-04-02T09:30:39.412Z,49.97
2023-04-02T09:33:09.271Z,49.84
2023-04-02T09:35:58.598Z,49.97
2023-04-02T09:38:31.590Z,49.78
2023-04-02T09:41:02.198Z,47.98
2023-04-02T09:43:39.667Z,48.00
2023-04-02T09:46:25.895Z,47.70
2023-04-02T09:49:02.387Z,48.54
2023-04-02T09:51:34.744Z,49.37
2023-04-02T09:54:05.925Z,50.05
2023-04-02T09:56:38.444Z,51.62
2023-04-02T09:59:08.809Z,52.58
2023-04-02T10:01:56.811Z,52.83
2023-04-02T10:04:47.280Z,53.04
2023-04-02T10:07:43.661Z,53.46
2023-04-02T10:10:37.667Z,53.91
2023-04-02T10:13:10.578Z,53.54
2023-04-02T10:15:57.066Z,53.40
2023-04-02T10:18:31.366Z,53.60
2023-04-02T10:21:03.486Z,53.29
2023-04-02T10:23:32.724Z,53.98
2023-04-02T10:26:42.316Z,53.62
2023-04-02T10:29:21.247Z,53.74
2023-04-02T10:31:57.174Z,53.75
2023-04-02T10:34:44.210Z,53.56
2023-04-02T10:37:37.077Z,54.29
2023-04-02T10:40:09.952Z,54.14
2023-04-02T10:42:40.448Z,55.00
2023-04-02T10:45:29.567Z,54.92
2023-04-02T10:48:23.405Z,55.24
2023-04-02T10:51:26.294Z,54.13
2023-04-02T10:54:16.460Z,52.65
2023-04-02T10:56:51.212Z,52.30
2023-04-02T10:59:33.265Z,48.55
2023-04-02T11:02:07.821Z,48.78
2023-04-02T11:04:48.576Z,48.64
2023-04-02T11:07:24.908Z,47.38
2023-04-02T11:09:57.055Z,45.62
2023-04-02T11:12:30.911Z,42.67
2023-04-02T11:14:58.982Z,44.02
2023-04-02T11:17:26.947Z,40.80
2023-04-02T11:19:56.089Z,40.13
2023-04-02T11:22:29.351Z,43.79
2023-04-02T11:24:58.620Z,43.73
2023-04-02T11:27:32.667Z,47.08
2023-04-02T11:30:25.694Z,48.29
2023-04-02T11:32:54.342Z,48.47
2023-04-02T11:35:38.453Z,48.17
2023-04-02T11:38:12.289Z,48.90
2023-04-02T11:40:49.401Z,49.88
2023-04-02T11:43:35.967Z,50.03
2023-04-02T11:46:06.607Z,50.52
2023-04-02T11:48:37.002Z,51.31
2023-04-02T11:51:24.205Z,51.67
2023-04-02T11:53:54.039Z,50.63
2023-04-02T11:56:27.639Z,47.91
2023-04-02T11:59:13.850Z,44.50
2023-04-02T12:02:09.505Z,42.37
2023-04-02T12:04:55.768Z,39.93
2023-04-02T12:07:52.293Z,39.96
2023-04-02T12:10:50.716Z,39.96
2023-04-02T12:13:43.264Z,38.38
2023-04-02T12:16:13.378Z,38.18
2023-04-02T12:18:53.709Z,36.70
2023-04-02T12:21:24.969Z,36.56
2023-04-02T12:23:55.700Z,36.52
2023-04-02T12:26:32.078Z,36.17
2023-04-02T12:29:24.923Z,35.29
2023-04-02T12:31:54.141Z,36.29
2023-04-02T12:34:24.499Z,35.55
2023-04-02T12:37:02.403Z,37.67
2023-04-02T12:39:31.902Z,38.25
2023-04-02T12:41:59.983Z,38.02
2023-04-02T12:44:32.806Z,37.52
2023-04-02T12:47:00.704Z,38.17
2023-04-02T12:49:44.308Z,36.86
2023-04-02T12:52:14.952Z,37.91
2023-04-02T12:55:00.271Z,39.22
2023-04-02T12:57:28.857Z,38.86
2023-04-02T13:00:06.442Z,39.45
2023-04-02T13:02:45.503Z,40.19
2023-04-02T13:05:13.831Z,39.44
2023-04-02T13:07:47.751Z,38.96
2023-04-02T13:10:27.466Z,39.41
2023-04-02T13:13:05.117Z,39.78
2023-04-02T13:15:37.142Z,40.10
2023-04-02T13:18:14.031Z,39.76
2023-04-02T13:20:43.232Z,39.83
2023-04-02T13:23:34.500Z,39.89
2023-04-02T13:26:18.774Z,40.59
2023-04-02T13:29:27.928Z,40.64
2023-04-02T13:32:01.839Z,41.09
2023-04-02T13:34:30.106Z,42.87
2023-04-02T13:36:58.351Z,43.50
2023-04-02T13:39:27.125Z,43.42
2023-04-02T13:42:04.101Z,43.61
2023-04-02T13:44:34.629Z,44.73
2023-04-02T13:47:02.681Z,45.32
2023-04-02T13:49:32.198Z,44.94
2023-04-02T13:52:05.140Z,44.91
2023-04-02T13:54:48.981Z,45.00
2023-04-02T13:57:16.935Z,44.73
2023-04-02T13:59:44.609Z,45.11
2023-04-02T14:02:17.733Z,46.18
2023-04-02T14:05:02.078Z,47.01
2023-04-02T14:07:59.975Z,48.19
2023-04-02T14:10:56.880Z,48.55
2023-04-02T14:13:30.104Z,47.29
2023-04-02T14:16:32.184Z,47.47
2023-04-02T14:19:27.728Z,47.75
2023-04-02T14:22:01.605Z,49.19
2023-04-02T14:25:07.749Z,50.21
2023-04-02T14:27:57.777Z,50.80
2023-04-02T14:30:54.495Z,52.30
2023-04-02T14:33:56.648Z,52.78
2023-04-02T14:36:37.073Z,52.64
2023-04-02T14:39:13.992Z,53.17
2023-04-02T14:41:57.266Z,53.74
2023-04-02T14:44:31.607Z,54.63
2023-04-02T14:47:23.646Z,55.75
2023-04-02T14:49:57.938Z,56.40
2023-04-02T14:52:29.358Z,56.57
2023-04-02T14:55:04.556Z,58.20
2023-04-02T14:57:33.757Z,57.91
2023-04-02T15:00:26.182Z,59.00
2023-04-02T15:02:56.955Z,61.41
2023-04-02T15:05:34.257Z,61.04
2023-04-02T15:08:07.447Z,60.82
2023-04-02T15:10:42.072Z,62.16
2023-04-02T15:13:19.823Z,63.54
2023-04-02T15:15:52.503Z,63.47
2023-04-02T15:18:20.178Z,67.55
2023-04-02T15:20:50.875Z,66.38
2023-04-02T15:23:30.438Z,70.83
2023-04-02T15:26:19.853Z,75.80
2023-04-02T15:29:02.181Z,82.66
2023-04-02T15:31:33.889Z,84.25
2023-04-02T15:34:22.487Z,85.24
2023-04-02T15:36:56.248Z,86.11
2023-04-02T15:39:26.885Z,88.56
2023-04-02T15:42:25.624Z,88.64
2023-04-02T15:45:08.789Z,89.49
2023-04-02T15:47:42.939Z,89.26
2023-04-02T15:50:45.982Z,91.24
2023-04-02T15:53:24.382Z,89.40
2023-04-02T15:56:14.246Z,90.96
2023-04-02T15:59:00.613Z,91.48
2023-04-02T16:01:43.877Z,93.84
2023-04-02T16:04:45.155Z,89.89
2023-04-02T16:07:46.823Z,91.08
2023-04-02T16:10:40.328Z,93.91
2023-04-02T16:13:19.444Z,93.11
2023-04-02T16:16:02.751Z,93.94
2023-04-02T16:18:55.060Z,91.45
2023-04-02T16:21:25.290Z,92.97
2023-04-02T16:23:55.449Z,93.07
2023-04-02T16:26:41.006Z,92.33
2023-04-02T16:29:23.990Z,90.81
2023-04-02T16:32:12.590Z,89.66
2023-04-02T16:37:52.641Z,91.41
2023-04-02T16:40:51.672Z,92.99
2023-04-02T16:43:33.945Z,90.27
2023-04-02T16:46:01.605Z,89.73
2023-04-02T16:48:58.656Z,90.87
2023-04-02T16:51:35.364Z,88.94
2023-04-02T16:54:30.461Z,89.48
2023-04-02T16:57:04.141Z,90.19
2023-04-02T16:59:59.581Z,90.77
2023-04-02T17:02:27.236Z,92.78
2023-04-02T17:05:18.193Z,91.47
2023-04-02T17:07:49.748Z,92.06
2023-04-02T17:10:17.418Z,93.49
2023-04-02T17:13:04.557Z,94.53
2023-04-02T17:15:39.909Z,96.13
2023-04-02T17:18:26.483Z,96.19
2023-04-02T17:20:55.001Z,96.46
2023-04-02T17:23:23.374Z,95.13
2023-04-02T17:25:55.584Z,96.17
2023-04-02T17:28:29.597Z,95.10
2023-04-02T17:31:01.280Z,94.11
2023-04-02T17:33:29.036Z,93.88
2023-04-02T17:36:22.285Z,94.08
2023-04-02T17:39:17.920Z,94.57
2023-04-02T17:42:14.453Z,94.24
2023-04-02T17:44:47.950Z,92.66
2023-04-02T17:47:21.733Z,92.62
2023-04-02T17:50:11.003Z,92.26
2023-04-02T17:52:56.057Z,91.27
2023-04-02T17:55:43.299Z,90.72
2023-04-02T17:58:28.026Z,90.03
2023-04-02T18:01:14.034Z,89.06
2023-04-02T18:03:50.340Z,88.58
2023-04-02T18:06:28.840Z,87.99
2023-04-02T18:09:08.895Z,86.94
2023-04-02T18:11:51.533Z,86.27
2023-04-02T18:14:37.598Z,85.23
2023-04-02T18:17:36.150Z,85.12
2023-04-02T18:20:28.337Z,84.73
2023-04-02T18:23:11.568Z,84.27
2023-04-02T18:25:58.853Z,83.58
2023-04-02T18:28:53.174Z,82.42
2023-04-02T18:31:59.263Z,80.94
2023-04-02T18:34:29.848Z,80.37
2023-04-02T18:37:13.951Z,79.54
2023-04-02T18:39:44.253Z,79.34
2023-04-02T18:42:39.502Z,78.91
2023-04-02T18:45:13.168Z,77.69
2023-04-02T18:47:46.656Z,77.47
2023-04-02T18:50:31.102Z,76.97
2023-04-02T18:52:58.699Z,77.17
2023-04-02T18:55:30.705Z,76.84
2023-04-02T18:58:28.079Z,76.96
2023-04-02T19:00:57.204Z,76.37
2023-04-02T19:03:33.404Z,76.30
2023-04-02T19:06:05.548Z,75.38
2023-04-02T19:08:55.919Z,76.03
2023-04-02T19:11:28.644Z,75.65
2023-04-02T19:14:13.234Z,75.18
2023-04-02T19:16:46.748Z,75.59
2023-04-02T19:19:23.158Z,74.61
2023-04-02T19:22:13.699Z,75.09
2023-04-02T19:24:59.825Z,74.91
2023-04-02T19:27:27.503Z,74.40
2023-04-02T19:30:02.425Z,74.53
2023-04-02T19:32:42.451Z,74.24
2023-04-02T19:35:24.104Z,74.01
2023-04-02T19:38:22.666Z,73.14
2023-04-02T19:41:00.572Z,73.42
2023-04-02T19:43:29.488Z,73.68
2023-04-02T19:45:57.511Z,73.23
2023-04-02T19:48:40.090Z,73.43
2023-04-02T19:51:07.836Z,73.18
2023-04-02T19:53:37.724Z,73.43
2023-04-02T19:56:06.997Z,72.62
2023-04-02T19:58:36.689Z,73.22
2023-04-02T20:01:05.089Z,73.01
2023-04-02T20:03:33.008Z,73.05
2023-04-02T20:06:01.066Z,72.78
2023-04-02T20:08:28.925Z,72.68
2023-04-02T20:10:58.665Z,72.58
2023-04-02T20:13:26.403Z,72.41
2023-04-02T20:16:00.145Z,72.42
2023-04-02T20:18:28.763Z,72.23
2023-04-02T20:20:56.660Z,72.24
2023-04-02T20:23:26.484Z,72.31
2023-04-02T20:25:58.883Z,72.00
2023-04-02T20:28:27.881Z,72.27
2023-04-02T20:31:06.278Z,71.44
2023-04-02T20:33:34.142Z,72.31
2023-04-02T20:36:05.549Z,71.99
2023-04-02T20:38:34.937Z,71.77
2023-04-02T20:41:04.519Z,72.04
2023-04-02T20:43:32.250Z,71.77
2023-04-02T20:46:04.259Z,71.90
2023-04-02T20:48:32.731Z,72.05
2023-04-02T20:51:02.198Z,71.97
2023-04-02T20:53:31.100Z,71.88
2023-04-02T20:56:06.258Z,71.92
2023-04-02T20:58:35.455Z,71.31
2023-04-02T21:01:11.986Z,71.57
2023-04-02T21:03:40.557Z,71.56
2023-04-02T21:06:28.531Z,71.59
2023-04-02T21:08:56.324Z,71.79
2023-04-02T21:11:26.271Z,72.21
2023-04-02T21:13:54.366Z,72.03
2023-04-02T21:16:24.777Z,72.81
2023-04-02T21:18:53.865Z,72.72
2023-04-02T21:21:23.191Z,73.06
2023-04-02T21:23:59.323Z,73.12
2023-04-02T21:26:28.495Z,73.11
2023-04-02T21:28:58.345Z,73.52
2023-04-02T21:31:31.200Z,73.21
2023-04-02T21:33:59.950Z,73.27
2023-04-02T21:36:36.390Z,73.18
2023-04-02T21:39:08.943Z,72.91
2023-04-02T21:41:39.247Z,73.02
2023-04-02T21:44:13.608Z,72.96
2023-04-02T21:46:43.098Z,72.80
2023-04-02T21:49:13.106Z,72.90
2023-04-02T21:51:42.333Z,72.71
2023-04-02T21:54:12.542Z,72.71
2023-04-02T21:56:42.612Z,72.68
2023-04-02T21:59:14.137Z,72.94
2023-04-02T22:01:46.061Z,72.42
2023-04-02T22:04:19.862Z,72.51
2023-04-02T22:06:48.385Z,72.44
2023-04-02T22:09:19.032Z,72.58
2023-04-02T22:11:49.525Z,72.51
2023-04-02T22:14:17.955Z,72.09
2023-04-02T22:16:45.801Z,72.27
2023-04-02T22:19:18.610Z,72.21
2023-04-02T22:21:47.866Z,71.84
2023-04-02T22:24:19.088Z,71.84
2023-04-02T22:26:47.207Z,72.05
2023-04-02T22:29:16.083Z,71.90
2023-04-02T22:31:43.962Z,71.89
2023-04-02T22:34:11.881Z,71.72
2023-04-02T22:36:39.481Z,71.41
2023-04-02T22:39:10.435Z,71.15
2023-04-02T22:41:38.644Z,70.90
2023-04-02T22:44:06.759Z,71.14
2023-04-02T22:46:34.870Z,70.96
2023-04-02T22:49:03.417Z,70.44
2023-04-02T22:51:32.102Z,70.69
2023-04-02T22:54:01.966Z,70.20
2023-04-02T22:56:32.861Z,69.92
2023-04-02T22:59:00.815Z,70.20
2023-04-02T23:01:34.431Z,69.99
2023-04-02T23:04:05.420Z,69.82
2023-04-02T23:06:33.236Z,70.13
2023-04-02T23:09:00.861Z,70.18
2023-04-02T23:11:29.223Z,70.09
2023-04-02T23:13:58.914Z,69.94
2023-04-02T23:16:29.295Z,69.97
2023-04-02T23:18:57.464Z,69.94
2023-04-02T23:21:27.784Z,69.90
2023-04-02T23:23:56.828Z,70.09
2023-04-02T23:26:33.728Z,70.34
2023-04-02T23:29:02.422Z,69.25
2023-04-02T23:31:30.211Z,69.92
2023-04-02T23:33:57.925Z,69.80
2023-04-02T23:36:28.848Z,69.66
2023-04-02T23:39:01.298Z,68.94
2023-04-02T23:41:30.338Z,69.90
2023-04-02T23:43:59.097Z,69.59
2023-04-02T23:46:27.077Z,69.74
2023-04-02T23:48:55.693Z,69.24
2023-04-02T23:51:24.314Z,69.19
2023-04-02T23:53:53.568Z,68.90
2023-04-02T23:56:21.777Z,69.03
2023-04-02T23:58:50.726Z,68.88
